sensor_id;sensor_type;location;lat;lon;timestamp;P1;durP1;ratioP1;P2;durP2;ratioP2
18166;SDS011;9208;42.688;23.404;2023-06-10T00:01:27;5.93;;;5.33;;
18166;SDS011;9208;42.688;23.404;2023-06-10T00:03:52;6.63;;;5.53;;
18166;SDS011;9208;42.688;23.404;2023-06-10T00:06:19;5.40;;;4.90;;
18166;SDS011;9208;42.688;23.404;2023-06-10T00:08:46;5.37;;;4.87;;
18166;SDS011;9208;42.688;23.404;2023-06-10T00:11:12;5.90;;;5.30;;
18166;SDS011;9208;42.688;23.404;2023-06-10T00:13:37;6.23;;;5.63;;
18166;SDS011;9208;42.688;23.404;2023-06-10T00:16:03;7.67;;;6.07;;
18166;SDS011;9208;42.688;23.404;2023-06-10T00:18:28;7.20;;;6.47;;
18166;SDS011;9208;42.688;23.404;2023-06-10T00:20:56;8.07;;;6.13;;
18166;SDS011;9208;42.688;23.404;2023-06-10T00:23:28;6.63;;;6.00;;
18166;SDS011;9208;42.688;23.404;2023-06-10T00:25:57;6.80;;;6.20;;
18166;SDS011;9208;42.688;23.404;2023-06-10T00:28:24;7.87;;;6.30;;
18166;SDS011;9208;42.688;23.404;2023-06-10T00:30:50;6.53;;;5.97;;
18166;SDS011;9208;42.688;23.404;2023-06-10T00:33:16;5.93;;;5.43;;
18166;SDS011;9208;42.688;23.404;2023-06-10T00:35:41;6.20;;;5.53;;
18166;SDS011;9208;42.688;23.404;2023-06-10T00:38:07;6.53;;;5.10;;
18166;SDS011;9208;42.688;23.404;2023-06-10T00:40:33;6.37;;;5.37;;
18166;SDS011;9208;42.688;23.404;2023-06-10T00:43:03;6.33;;;5.20;;
18166;SDS011;9208;42.688;23.404;2023-06-10T00:45:29;5.97;;;5.47;;
18166;SDS011;9208;42.688;23.404;2023-06-10T00:47:55;6.63;;;5.40;;
18166;SDS011;9208;42.688;23.404;2023-06-10T00:50:20;6.20;;;5.27;;
18166;SDS011;9208;42.688;23.404;2023-06-10T00:52:46;6.47;;;5.53;;
18166;SDS011;9208;42.688;23.404;2023-06-10T00:55:13;8.53;;;6.50;;
18166;SDS011;9208;42.688;23.404;2023-06-10T00:57:41;7.83;;;6.30;;
18166;SDS011;9208;42.688;23.404;2023-06-10T01:00:09;10.43;;;6.47;;
18166;SDS011;9208;42.688;23.404;2023-06-10T01:02:35;6.43;;;5.93;;
18166;SDS011;9208;42.688;23.404;2023-06-10T01:05:01;8.67;;;6.97;;
18166;SDS011;9208;42.688;23.404;2023-06-10T01:10:31;9.40;;;6.83;;
18166;SDS011;9208;42.688;23.404;2023-06-10T01:13:05;9.50;;;6.90;;
18166;SDS011;9208;42.688;23.404;2023-06-10T01:15:33;8.50;;;7.07;;
18166;SDS011;9208;42.688;23.404;2023-06-10T01:18:09;8.13;;;6.87;;
18166;SDS011;9208;42.688;23.404;2023-06-10T01:20:40;8.17;;;7.27;;
18166;SDS011;9208;42.688;23.404;2023-06-10T01:23:08;9.47;;;7.57;;
18166;SDS011;9208;42.688;23.404;2023-06-10T01:25:39;8.60;;;7.20;;
18166;SDS011;9208;42.688;23.404;2023-06-10T01:30:48;10.17;;;7.50;;
18166;SDS011;9208;42.688;23.404;2023-06-10T01:33:37;12.33;;;7.70;;
18166;SDS011;9208;42.688;23.404;2023-06-10T01:36:06;8.13;;;7.40;;
18166;SDS011;9208;42.688;23.404;2023-06-10T01:38:33;8.13;;;7.33;;
18166;SDS011;9208;42.688;23.404;2023-06-10T01:41:04;7.43;;;6.70;;
18166;SDS011;9208;42.688;23.404;2023-06-10T01:43:32;8.37;;;6.37;;
18166;SDS011;9208;42.688;23.404;2023-06-10T01:45:59;6.37;;;5.70;;
18166;SDS011;9208;42.688;23.404;2023-06-10T01:48:24;4.80;;;4.40;;
18166;SDS011;9208;42.688;23.404;2023-06-10T01:50:50;4.97;;;4.57;;
18166;SDS011;9208;42.688;23.404;2023-06-10T01:53:20;4.77;;;4.37;;
18166;SDS011;9208;42.688;23.404;2023-06-10T01:55:46;5.53;;;4.80;;
18166;SDS011;9208;42.688;23.404;2023-06-10T01:58:11;4.00;;;3.67;;
18166;SDS011;9208;42.688;23.404;2023-06-10T02:00:37;4.70;;;4.30;;
18166;SDS011;9208;42.688;23.404;2023-06-10T02:03:02;4.90;;;4.37;;
18166;SDS011;9208;42.688;23.404;2023-06-10T02:05:28;5.10;;;4.60;;
18166;SDS011;9208;42.688;23.404;2023-06-10T02:07:53;6.13;;;4.67;;
18166;SDS011;9208;42.688;23.404;2023-06-10T02:10:18;6.60;;;4.70;;
18166;SDS011;9208;42.688;23.404;2023-06-10T02:12:44;5.00;;;4.50;;
18166;SDS011;9208;42.688;23.404;2023-06-10T02:15:09;5.90;;;5.27;;
18166;SDS011;9208;42.688;23.404;2023-06-10T02:17:35;6.77;;;4.83;;
18166;SDS011;9208;42.688;23.404;2023-06-10T02:20:00;5.17;;;4.77;;
18166;SDS011;9208;42.688;23.404;2023-06-10T02:22:31;4.87;;;4.53;;
18166;SDS011;9208;42.688;23.404;2023-06-10T02:24:56;5.40;;;5.00;;
18166;SDS011;9208;42.688;23.404;2023-06-10T02:27:22;6.87;;;5.43;;
18166;SDS011;9208;42.688;23.404;2023-06-10T02:29:47;6.73;;;4.80;;
18166;SDS011;9208;42.688;23.404;2023-06-10T02:32:13;6.53;;;5.40;;
18166;SDS011;9208;42.688;23.404;2023-06-10T02:34:38;7.67;;;5.10;;
18166;SDS011;9208;42.688;23.404;2023-06-10T02:37:03;6.37;;;5.50;;
18166;SDS011;9208;42.688;23.404;2023-06-10T02:39:29;6.17;;;5.57;;
18166;SDS011;9208;42.688;23.404;2023-06-10T02:41:55;6.13;;;5.30;;
18166;SDS011;9208;42.688;23.404;2023-06-10T02:44:20;6.60;;;5.53;;
18166;SDS011;9208;42.688;23.404;2023-06-10T02:46:46;7.03;;;5.90;;
18166;SDS011;9208;42.688;23.404;2023-06-10T02:49:12;6.10;;;5.20;;
18166;SDS011;9208;42.688;23.404;2023-06-10T02:51:37;6.33;;;5.73;;
18166;SDS011;9208;42.688;23.404;2023-06-10T02:54:03;6.53;;;5.50;;
18166;SDS011;9208;42.688;23.404;2023-06-10T02:56:29;6.63;;;5.90;;
18166;SDS011;9208;42.688;23.404;2023-06-10T02:58:55;7.53;;;6.37;;
18166;SDS011;9208;42.688;23.404;2023-06-10T03:01:20;6.20;;;5.63;;
18166;SDS011;9208;42.688;23.404;2023-06-10T03:03:46;7.70;;;5.50;;
18166;SDS011;9208;42.688;23.404;2023-06-10T03:06:12;7.47;;;5.37;;
18166;SDS011;9208;42.688;23.404;2023-06-10T03:08:38;5.03;;;4.63;;
18166;SDS011;9208;42.688;23.404;2023-06-10T03:11:04;5.40;;;4.90;;
18166;SDS011;9208;42.688;23.404;2023-06-10T03:13:29;5.47;;;4.77;;
18166;SDS011;9208;42.688;23.404;2023-06-10T03:15:55;6.90;;;5.20;;
18166;SDS011;9208;42.688;23.404;2023-06-10T03:18:20;5.67;;;5.17;;
18166;SDS011;9208;42.688;23.404;2023-06-10T03:20:48;6.10;;;5.50;;
18166;SDS011;9208;42.688;23.404;2023-06-10T03:23:13;5.57;;;5.00;;
18166;SDS011;9208;42.688;23.404;2023-06-10T03:25:38;5.83;;;5.33;;
18166;SDS011;9208;42.688;23.404;2023-06-10T03:28:04;5.63;;;5.13;;
18166;SDS011;9208;42.688;23.404;2023-06-10T03:30:29;6.03;;;5.43;;
18166;SDS011;9208;42.688;23.404;2023-06-10T03:32:55;10.90;;;9.80;;
18166;SDS011;9208;42.688;23.404;2023-06-10T03:35:20;15.83;;;14.27;;
18166;SDS011;9208;42.688;23.404;2023-06-10T03:37:46;17.17;;;15.50;;
18166;SDS011;9208;42.688;23.404;2023-06-10T03:40:11;21.10;;;19.07;;
18166;SDS011;9208;42.688;23.404;2023-06-10T03:42:36;19.80;;;17.87;;
18166;SDS011;9208;42.688;23.404;2023-06-10T03:45:02;14.90;;;13.43;;
18166;SDS011;9208;42.688;23.404;2023-06-10T03:47:36;11.10;;;10.10;;
18166;SDS011;9208;42.688;23.404;2023-06-10T03:50:05;7.60;;;6.77;;
18166;SDS011;9208;42.688;23.404;2023-06-10T03:52:31;8.37;;;7.57;;
18166;SDS011;9208;42.688;23.404;2023-06-10T03:54:57;7.53;;;6.67;;
18166;SDS011;9208;42.688;23.404;2023-06-10T03:57:22;8.03;;;7.23;;
18166;SDS011;9208;42.688;23.404;2023-06-10T03:59:48;7.67;;;6.97;;
18166;SDS011;9208;42.688;23.404;2023-06-10T04:02:13;7.20;;;6.60;;
18166;SDS011;9208;42.688;23.404;2023-06-10T04:04:38;7.57;;;6.80;;
18166;SDS011;9208;42.688;23.404;2023-06-10T04:07:04;7.43;;;6.83;;
18166;SDS011;9208;42.688;23.404;2023-06-10T04:09:30;7.90;;;7.07;;
18166;SDS011;9208;42.688;23.404;2023-06-10T04:11:56;7.40;;;6.70;;
18166;SDS011;9208;42.688;23.404;2023-06-10T04:14:22;7.10;;;6.50;;
18166;SDS011;9208;42.688;23.404;2023-06-10T04:16:47;8.10;;;6.90;;
18166;SDS011;9208;42.688;23.404;2023-06-10T04:19:13;7.20;;;6.60;;
18166;SDS011;9208;42.688;23.404;2023-06-10T04:21:38;8.03;;;7.13;;
18166;SDS011;9208;42.688;23.404;2023-06-10T04:24:04;7.50;;;6.60;;
18166;SDS011;9208;42.688;23.404;2023-06-10T04:26:30;7.47;;;6.87;;
18166;SDS011;9208;42.688;23.404;2023-06-10T04:28:55;7.50;;;6.90;;
18166;SDS011;9208;42.688;23.404;2023-06-10T04:31:20;7.33;;;6.53;;
18166;SDS011;9208;42.688;23.404;2023-06-10T04:33:46;7.10;;;6.50;;
18166;SDS011;9208;42.688;23.404;2023-06-10T04:36:11;14.67;;;8.90;;
18166;SDS011;9208;42.688;23.404;2023-06-10T04:38:37;44.30;;;40.50;;
18166;SDS011;9208;42.688;23.404;2023-06-10T04:41:02;53.23;;;48.53;;
18166;SDS011;9208;42.688;23.404;2023-06-10T04:43:28;46.97;;;42.87;;
18166;SDS011;9208;42.688;23.404;2023-06-10T04:45:54;39.73;;;36.23;;
18166;SDS011;9208;42.688;23.404;2023-06-10T04:48:20;24.07;;;22.07;;
18166;SDS011;9208;42.688;23.404;2023-06-10T04:50:45;15.77;;;14.33;;
18166;SDS011;9208;42.688;23.404;2023-06-10T04:53:11;13.30;;;12.13;;
18166;SDS011;9208;42.688;23.404;2023-06-10T04:55:37;15.77;;;12.63;;
18166;SDS011;9208;42.688;23.404;2023-06-10T04:58:02;11.10;;;9.87;;
18166;SDS011;9208;42.688;23.404;2023-06-10T05:00:28;11.97;;;9.70;;
18166;SDS011;9208;42.688;23.404;2023-06-10T05:02:53;10.37;;;9.37;;
18166;SDS011;9208;42.688;23.404;2023-06-10T05:05:21;9.93;;;8.17;;
18166;SDS011;9208;42.688;23.404;2023-06-10T05:07:46;8.97;;;7.03;;
18166;SDS011;9208;42.688;23.404;2023-06-10T05:10:12;10.40;;;7.67;;
18166;SDS011;9208;42.688;23.404;2023-06-10T05:12:40;7.63;;;6.93;;
18166;SDS011;9208;42.688;23.404;2023-06-10T05:15:06;8.17;;;7.40;;
18166;SDS011;9208;42.688;23.404;2023-06-10T05:17:32;8.93;;;8.03;;
18166;SDS011;9208;42.688;23.404;2023-06-10T05:19:59;10.20;;;8.53;;
18166;SDS011;9208;42.688;23.404;2023-06-10T05:22:25;9.80;;;8.73;;
18166;SDS011;9208;42.688;23.404;2023-06-10T05:24:51;9.67;;;8.33;;
18166;SDS011;9208;42.688;23.404;2023-06-10T05:27:19;9.73;;;8.73;;
18166;SDS011;9208;42.688;23.404;2023-06-10T05:29:45;8.90;;;8.10;;
18166;SDS011;9208;42.688;23.404;2023-06-10T05:32:10;9.77;;;8.00;;
18166;SDS011;9208;42.688;23.404;2023-06-10T05:34:36;9.87;;;8.03;;
18166;SDS011;9208;42.688;23.404;2023-06-10T05:37:01;12.10;;;8.87;;
18166;SDS011;9208;42.688;23.404;2023-06-10T05:39:27;9.87;;;8.87;;
18166;SDS011;9208;42.688;23.404;2023-06-10T05:41:52;10.90;;;9.07;;
18166;SDS011;9208;42.688;23.404;2023-06-10T05:44:18;11.20;;;8.67;;
18166;SDS011;9208;42.688;23.404;2023-06-10T05:46:43;10.20;;;9.07;;
18166;SDS011;9208;42.688;23.404;2023-06-10T05:49:09;9.80;;;8.87;;
18166;SDS011;9208;42.688;23.404;2023-06-10T05:51:34;10.67;;;9.67;;
18166;SDS011;9208;42.688;23.404;2023-06-10T05:54:03;10.13;;;9.13;;
18166;SDS011;9208;42.688;23.404;2023-06-10T05:56:28;9.87;;;8.70;;
18166;SDS011;9208;42.688;23.404;2023-06-10T05:58:54;9.53;;;8.60;;
18166;SDS011;9208;42.688;23.404;2023-06-10T06:01:22;9.90;;;9.00;;
18166;SDS011;9208;42.688;23.404;2023-06-10T06:03:48;10.83;;;8.57;;
18166;SDS011;9208;42.688;23.404;2023-06-10T06:06:13;11.23;;;9.90;;
18166;SDS011;9208;42.688;23.404;2023-06-10T06:08:39;10.17;;;9.23;;
18166;SDS011;9208;42.688;23.404;2023-06-10T06:11:04;9.60;;;8.57;;
18166;SDS011;9208;42.688;23.404;2023-06-10T06:13:30;9.47;;;8.47;;
18166;SDS011;9208;42.688;23.404;2023-06-10T06:15:55;11.10;;;9.20;;
18166;SDS011;9208;42.688;23.404;2023-06-10T06:18:20;9.83;;;8.83;;
18166;SDS011;9208;42.688;23.404;2023-06-10T06:20:46;12.43;;;9.07;;
18166;SDS011;9208;42.688;23.404;2023-06-10T06:23:11;9.53;;;8.50;;
18166;SDS011;9208;42.688;23.404;2023-06-10T06:25:37;14.57;;;9.40;;
18166;SDS011;9208;42.688;23.404;2023-06-10T06:28:05;10.47;;;9.43;;
18166;SDS011;9208;42.688;23.404;2023-06-10T06:30:31;10.63;;;9.60;;
18166;SDS011;9208;42.688;23.404;2023-06-10T06:32:56;11.13;;;9.23;;
18166;SDS011;9208;42.688;23.404;2023-06-10T06:35:22;11.00;;;9.17;;
18166;SDS011;9208;42.688;23.404;2023-06-10T06:37:47;10.23;;;9.20;;
18166;SDS011;9208;42.688;23.404;2023-06-10T06:40:16;11.60;;;9.80;;
18166;SDS011;9208;42.688;23.404;2023-06-10T06:42:44;16.87;;;9.80;;
18166;SDS011;9208;42.688;23.404;2023-06-10T06:45:10;11.77;;;9.27;;
18166;SDS011;9208;42.688;23.404;2023-06-10T06:47:35;10.47;;;9.47;;
18166;SDS011;9208;42.688;23.404;2023-06-10T06:50:01;12.50;;;9.47;;
18166;SDS011;9208;42.688;23.404;2023-06-10T06:52:27;10.73;;;9.67;;
18166;SDS011;9208;42.688;23.404;2023-06-10T06:54:53;11.07;;;9.43;;
18166;SDS011;9208;42.688;23.404;2023-06-10T06:57:19;9.40;;;8.33;;
18166;SDS011;9208;42.688;23.404;2023-06-10T06:59:44;8.83;;;7.93;;
18166;SDS011;9208;42.688;23.404;2023-06-10T07:02:10;11.20;;;8.80;;
18166;SDS011;9208;42.688;23.404;2023-06-10T07:04:36;9.33;;;8.13;;
18166;SDS011;9208;42.688;23.404;2023-06-10T07:07:02;11.40;;;8.20;;
18166;SDS011;9208;42.688;23.404;2023-06-10T07:09:27;9.53;;;8.20;;
18166;SDS011;9208;42.688;23.404;2023-06-10T07:11:53;9.47;;;8.47;;
18166;SDS011;9208;42.688;23.404;2023-06-10T07:14:18;11.43;;;10.43;;
18166;SDS011;9208;42.688;23.404;2023-06-10T07:16:44;11.83;;;10.67;;
18166;SDS011;9208;42.688;23.404;2023-06-10T07:19:11;11.27;;;10.27;;
18166;SDS011;9208;42.688;23.404;2023-06-10T07:21:36;10.73;;;9.67;;
18166;SDS011;9208;42.688;23.404;2023-06-10T07:24:03;10.00;;;9.00;;
18166;SDS011;9208;42.688;23.404;2023-06-10T07:26:28;8.37;;;7.57;;
18166;SDS011;9208;42.688;23.404;2023-06-10T07:28:54;10.97;;;8.83;;
18166;SDS011;9208;42.688;23.404;2023-06-10T07:31:19;9.80;;;7.70;;
18166;SDS011;9208;42.688;23.404;2023-06-10T07:33:44;9.17;;;7.80;;
18166;SDS011;9208;42.688;23.404;2023-06-10T07:36:12;8.30;;;7.50;;
18166;SDS011;9208;42.688;23.404;2023-06-10T07:38:37;11.33;;;7.70;;
18166;SDS011;9208;42.688;23.404;2023-06-10T07:41:02;10.10;;;6.70;;
18166;SDS011;9208;42.688;23.404;2023-06-10T07:43:28;7.50;;;6.63;;
18166;SDS011;9208;42.688;23.404;2023-06-10T07:45:53;6.57;;;5.93;;
18166;SDS011;9208;42.688;23.404;2023-06-10T07:48:19;8.33;;;6.20;;
18166;SDS011;9208;42.688;23.404;2023-06-10T07:50:44;8.60;;;6.43;;
18166;SDS011;9208;42.688;23.404;2023-06-10T07:53:10;10.50;;;8.73;;
18166;SDS011;9208;42.688;23.404;2023-06-10T07:55:35;12.27;;;6.63;;
18166;SDS011;9208;42.688;23.404;2023-06-10T07:58:01;7.87;;;5.97;;
18166;SDS011;9208;42.688;23.404;2023-06-10T08:00:26;6.33;;;5.73;;
18166;SDS011;9208;42.688;23.404;2023-06-10T08:02:52;6.43;;;5.70;;
18166;SDS011;9208;42.688;23.404;2023-06-10T08:05:17;5.53;;;4.93;;
18166;SDS011;9208;42.688;23.404;2023-06-10T08:07:43;6.27;;;4.47;;
18166;SDS011;9208;42.688;23.404;2023-06-10T08:10:09;5.70;;;5.17;;
18166;SDS011;9208;42.688;23.404;2023-06-10T08:12:35;7.30;;;5.37;;
18166;SDS011;9208;42.688;23.404;2023-06-10T08:15:01;6.50;;;4.60;;
18166;SDS011;9208;42.688;23.404;2023-06-10T08:17:28;4.60;;;4.00;;
18166;SDS011;9208;42.688;23.404;2023-06-10T08:19:54;6.03;;;4.03;;
18166;SDS011;9208;42.688;23.404;2023-06-10T08:22:20;4.40;;;4.00;;
18166;SDS011;9208;42.688;23.404;2023-06-10T08:24:47;5.57;;;4.30;;
18166;SDS011;9208;42.688;23.404;2023-06-10T08:27:13;4.63;;;3.57;;
18166;SDS011;9208;42.688;23.404;2023-06-10T08:29:39;4.77;;;3.97;;
18166;SDS011;9208;42.688;23.404;2023-06-10T08:32:04;5.10;;;4.47;;
18166;SDS011;9208;42.688;23.404;2023-06-10T08:34:33;4.50;;;3.73;;
18166;SDS011;9208;42.688;23.404;2023-06-10T08:36:59;4.23;;;3.93;;
18166;SDS011;9208;42.688;23.404;2023-06-10T08:39:25;4.20;;;3.80;;
18166;SDS011;9208;42.688;23.404;2023-06-10T08:44:53;4.70;;;3.37;;
18166;SDS011;9208;42.688;23.404;2023-06-10T08:47:21;4.13;;;3.73;;
18166;SDS011;9208;42.688;23.404;2023-06-10T08:49:48;4.03;;;3.73;;
18166;SDS011;9208;42.688;23.404;2023-06-10T08:52:15;4.47;;;3.97;;
18166;SDS011;9208;42.688;23.404;2023-06-10T08:55:04;3.73;;;3.43;;
18166;SDS011;9208;42.688;23.404;2023-06-10T08:57:30;4.87;;;3.30;;
18166;SDS011;9208;42.688;23.404;2023-06-10T08:59:57;4.70;;;3.57;;
18166;SDS011;9208;42.688;23.404;2023-06-10T09:02:26;3.77;;;3.40;;
18166;SDS011;9208;42.688;23.404;2023-06-10T09:04:52;5.47;;;3.70;;
18166;SDS011;9208;42.688;23.404;2023-06-10T09:07:20;4.67;;;4.27;;
18166;SDS011;9208;42.688;23.404;2023-06-10T09:09:48;3.90;;;3.60;;
18166;SDS011;9208;42.688;23.404;2023-06-10T09:12:14;3.90;;;3.60;;
18166;SDS011;9208;42.688;23.404;2023-06-10T09:14:40;3.90;;;3.60;;
18166;SDS011;9208;42.688;23.404;2023-06-10T09:17:09;3.30;;;2.50;;
18166;SDS011;9208;42.688;23.404;2023-06-10T09:19:35;6.83;;;3.00;;
18166;SDS011;9208;42.688;23.404;2023-06-10T09:22:01;4.97;;;3.57;;
18166;SDS011;9208;42.688;23.404;2023-06-10T09:24:27;5.03;;;3.13;;
18166;SDS011;9208;42.688;23.404;2023-06-10T09:27:03;3.33;;;2.97;;
18166;SDS011;9208;42.688;23.404;2023-06-10T09:29:30;3.07;;;2.87;;
18166;SDS011;9208;42.688;23.404;2023-06-10T09:31:55;3.33;;;3.03;;
18166;SDS011;9208;42.688;23.404;2023-06-10T09:34:24;4.43;;;3.20;;
18166;SDS011;9208;42.688;23.404;2023-06-10T09:36:53;3.30;;;3.00;;
18166;SDS011;9208;42.688;23.404;2023-06-10T09:39:19;6.80;;;3.60;;
18166;SDS011;9208;42.688;23.404;2023-06-10T09:41:45;5.93;;;3.60;;
18166;SDS011;9208;42.688;23.404;2023-06-10T09:44:15;4.03;;;3.63;;
18166;SDS011;9208;42.688;23.404;2023-06-10T09:46:44;4.33;;;3.70;;
18166;SDS011;9208;42.688;23.404;2023-06-10T09:49:11;4.20;;;3.43;;
18166;SDS011;9208;42.688;23.404;2023-06-10T09:51:36;4.43;;;3.37;;
18166;SDS011;9208;42.688;23.404;2023-06-10T09:54:02;5.70;;;4.40;;
18166;SDS011;9208;42.688;23.404;2023-06-10T09:56:35;5.97;;;4.20;;
18166;SDS011;9208;42.688;23.404;2023-06-10T09:59:01;3.93;;;3.63;;
18166;SDS011;9208;42.688;23.404;2023-06-10T10:01:27;5.70;;;3.70;;
18166;SDS011;9208;42.688;23.404;2023-06-10T10:03:53;3.80;;;3.47;;
18166;SDS011;9208;42.688;23.404;2023-06-10T10:06:19;3.77;;;3.47;;
18166;SDS011;9208;42.688;23.404;2023-06-10T10:08:47;3.80;;;3.40;;
18166;SDS011;9208;42.688;23.404;2023-06-10T10:11:14;3.70;;;3.40;;
18166;SDS011;9208;42.688;23.404;2023-06-10T10:13:45;4.37;;;3.40;;
18166;SDS011;9208;42.688;23.404;2023-06-10T10:16:14;3.90;;;3.60;;
18166;SDS011;9208;42.688;23.404;2023-06-10T10:18:46;3.73;;;3.20;;
18166;SDS011;9208;42.688;23.404;2023-06-10T10:21:16;3.60;;;3.30;;
18166;SDS011;9208;42.688;23.404;2023-06-10T10:26:20;3.33;;;3.03;;
18166;SDS011;9208;42.688;23.404;2023-06-10T10:29:33;3.57;;;3.27;;
18166;SDS011;9208;42.688;23.404;2023-06-10T10:31:39;3.27;;;2.73;;
18166;SDS011;9208;42.688;23.404;2023-06-10T10:34:10;4.70;;;3.60;;
18166;SDS011;9208;42.688;23.404;2023-06-10T10:36:38;3.97;;;3.27;;
18166;SDS011;9208;42.688;23.404;2023-06-10T10:39:04;3.73;;;3.30;;
18166;SDS011;9208;42.688;23.404;2023-06-10T10:41:30;4.13;;;3.30;;
18166;SDS011;9208;42.688;23.404;2023-06-10T10:43:57;3.57;;;3.27;;
18166;SDS011;9208;42.688;23.404;2023-06-10T10:46:23;4.53;;;3.33;;
18166;SDS011;9208;42.688;23.404;2023-06-10T10:48:52;4.10;;;3.43;;
18166;SDS011;9208;42.688;23.404;2023-06-10T10:51:19;4.03;;;3.10;;
18166;SDS011;9208;42.688;23.404;2023-06-10T10:54:09;3.43;;;3.17;;
18166;SDS011;9208;42.688;23.404;2023-06-10T10:56:37;2.90;;;2.60;;
18166;SDS011;9208;42.688;23.404;2023-06-10T10:59:06;3.60;;;3.30;;
18166;SDS011;9208;42.688;23.404;2023-06-10T11:01:42;3.20;;;3.00;;
18166;SDS011;9208;42.688;23.404;2023-06-10T11:04:11;5.63;;;3.47;;
18166;SDS011;9208;42.688;23.404;2023-06-10T11:06:37;3.43;;;3.13;;
18166;SDS011;9208;42.688;23.404;2023-06-10T11:09:24;3.47;;;3.27;;
18166;SDS011;9208;42.688;23.404;2023-06-10T11:11:52;3.73;;;3.30;;
18166;SDS011;9208;42.688;23.404;2023-06-10T11:14:30;6.20;;;3.40;;
18166;SDS011;9208;42.688;23.404;2023-06-10T11:16:58;6.60;;;3.80;;
18166;SDS011;9208;42.688;23.404;2023-06-10T11:19:34;3.77;;;3.40;;
18166;SDS011;9208;42.688;23.404;2023-06-10T11:22:01;3.90;;;3.60;;
18166;SDS011;9208;42.688;23.404;2023-06-10T11:24:34;3.70;;;3.17;;
18166;SDS011;9208;42.688;23.404;2023-06-10T11:32:48;3.17;;;2.97;;
18166;SDS011;9208;42.688;23.404;2023-06-10T11:35:16;4.13;;;3.47;;
18166;SDS011;9208;42.688;23.404;2023-06-10T11:37:43;4.13;;;3.20;;
18166;SDS011;9208;42.688;23.404;2023-06-10T11:40:09;5.30;;;3.20;;
18166;SDS011;9208;42.688;23.404;2023-06-10T11:42:38;3.60;;;3.27;;
18166;SDS011;9208;42.688;23.404;2023-06-10T11:45:05;3.90;;;3.10;;
18166;SDS011;9208;42.688;23.404;2023-06-10T11:47:33;3.20;;;2.90;;
18166;SDS011;9208;42.688;23.404;2023-06-10T11:50:02;2.87;;;2.67;;
18166;SDS011;9208;42.688;23.404;2023-06-10T11:52:30;3.00;;;2.80;;
18166;SDS011;9208;42.688;23.404;2023-06-10T11:55:04;4.40;;;2.77;;
18166;SDS011;9208;42.688;23.404;2023-06-10T11:57:33;3.70;;;2.77;;
18166;SDS011;9208;42.688;23.404;2023-06-10T12:00:08;2.80;;;2.60;;
18166;SDS011;9208;42.688;23.404;2023-06-10T12:02:34;2.57;;;2.37;;
18166;SDS011;9208;42.688;23.404;2023-06-10T12:05:18;3.10;;;2.80;;
18166;SDS011;9208;42.688;23.404;2023-06-10T12:07:44;3.50;;;2.80;;
18166;SDS011;9208;42.688;23.404;2023-06-10T12:10:09;3.07;;;2.83;;
18166;SDS011;9208;42.688;23.404;2023-06-10T12:12:35;2.93;;;2.70;;
18166;SDS011;9208;42.688;23.404;2023-06-10T12:15:02;3.00;;;2.80;;
18166;SDS011;9208;42.688;23.404;2023-06-10T12:19:55;3.70;;;2.80;;
18166;SDS011;9208;42.688;23.404;2023-06-10T12:22:21;3.00;;;2.80;;
18166;SDS011;9208;42.688;23.404;2023-06-10T12:24:57;2.70;;;2.50;;
18166;SDS011;9208;42.688;23.404;2023-06-10T12:27:28;2.83;;;2.63;;
18166;SDS011;9208;42.688;23.404;2023-06-10T12:29:54;2.70;;;2.50;;
18166;SDS011;9208;42.688;23.404;2023-06-10T12:32:21;4.17;;;2.83;;
18166;SDS011;9208;42.688;23.404;2023-06-10T12:35:01;3.00;;;2.70;;
18166;SDS011;9208;42.688;23.404;2023-06-10T12:37:30;3.00;;;2.33;;
18166;SDS011;9208;42.688;23.404;2023-06-10T12:39:59;5.90;;;4.03;;
18166;SDS011;9208;42.688;23.404;2023-06-10T12:42:26;3.23;;;2.90;;
18166;SDS011;9208;42.688;23.404;2023-06-10T12:44:55;5.77;;;2.80;;
18166;SDS011;9208;42.688;23.404;2023-06-10T12:47:28;2.97;;;2.67;;
18166;SDS011;9208;42.688;23.404;2023-06-10T12:50:02;5.57;;;2.40;;
18166;SDS011;9208;42.688;23.404;2023-06-10T12:52:29;4.43;;;2.93;;
18166;SDS011;9208;42.688;23.404;2023-06-10T12:54:54;3.80;;;2.90;;
18166;SDS011;9208;42.688;23.404;2023-06-10T12:57:21;4.27;;;2.53;;
18166;SDS011;9208;42.688;23.404;2023-06-10T12:59:47;5.07;;;3.03;;
18166;SDS011;9208;42.688;23.404;2023-06-10T13:02:17;2.80;;;2.60;;
18166;SDS011;9208;42.688;23.404;2023-06-10T13:04:45;10.27;;;4.10;;
18166;SDS011;9208;42.688;23.404;2023-06-10T13:07:11;7.93;;;3.17;;
18166;SDS011;9208;42.688;23.404;2023-06-10T13:09:37;4.60;;;2.80;;
18166;SDS011;9208;42.688;23.404;2023-06-10T13:12:03;7.40;;;3.10;;
18166;SDS011;9208;42.688;23.404;2023-06-10T13:14:28;4.03;;;2.80;;
18166;SDS011;9208;42.688;23.404;2023-06-10T13:16:54;2.93;;;2.63;;
18166;SDS011;9208;42.688;23.404;2023-06-10T13:19:20;4.20;;;2.80;;
18166;SDS011;9208;42.688;23.404;2023-06-10T13:21:49;3.80;;;3.13;;
18166;SDS011;9208;42.688;23.404;2023-06-10T13:24:14;5.33;;;3.33;;
18166;SDS011;9208;42.688;23.404;2023-06-10T13:26:40;4.00;;;3.20;;
18166;SDS011;9208;42.688;23.404;2023-06-10T13:29:06;3.10;;;2.80;;
18166;SDS011;9208;42.688;23.404;2023-06-10T13:31:33;4.70;;;3.50;;
18166;SDS011;9208;42.688;23.404;2023-06-10T13:33:58;5.90;;;3.70;;
18166;SDS011;9208;42.688;23.404;2023-06-10T13:36:24;3.53;;;3.30;;
18166;SDS011;9208;42.688;23.404;2023-06-10T13:38:49;6.73;;;3.80;;
18166;SDS011;9208;42.688;23.404;2023-06-10T13:41:15;5.67;;;3.43;;
18166;SDS011;9208;42.688;23.404;2023-06-10T13:43:41;3.73;;;3.30;;
18166;SDS011;9208;42.688;23.404;2023-06-10T13:46:06;3.97;;;3.57;;
18166;SDS011;9208;42.688;23.404;2023-06-10T13:48:33;5.73;;;3.30;;
18166;SDS011;9208;42.688;23.404;2023-06-10T13:50:59;3.77;;;3.47;;
18166;SDS011;9208;42.688;23.404;2023-06-10T13:53:25;3.97;;;3.37;;
18166;SDS011;9208;42.688;23.404;2023-06-10T13:55:50;4.73;;;3.47;;
18166;SDS011;9208;42.688;23.404;2023-06-10T13:58:16;4.83;;;3.73;;
18166;SDS011;9208;42.688;23.404;2023-06-10T14:00:41;7.80;;;4.30;;
18166;SDS011;9208;42.688;23.404;2023-06-10T14:03:07;4.77;;;4.27;;
18166;SDS011;9208;42.688;23.404;2023-06-10T14:05:32;4.57;;;4.17;;
18166;SDS011;9208;42.688;23.404;2023-06-10T14:07:58;4.03;;;3.60;;
18166;SDS011;9208;42.688;23.404;2023-06-10T14:10:24;4.73;;;3.90;;
18166;SDS011;9208;42.688;23.404;2023-06-10T14:12:49;3.83;;;3.47;;
18166;SDS011;9208;42.688;23.404;2023-06-10T14:15:15;4.20;;;3.50;;
18166;SDS011;9208;42.688;23.404;2023-06-10T14:17:41;4.60;;;3.10;;
18166;SDS011;9208;42.688;23.404;2023-06-10T14:20:10;6.23;;;3.70;;
18166;SDS011;9208;42.688;23.404;2023-06-10T14:22:36;4.27;;;3.50;;
18166;SDS011;9208;42.688;23.404;2023-06-10T14:25:01;3.73;;;3.30;;
18166;SDS011;9208;42.688;23.404;2023-06-10T14:27:27;7.10;;;3.60;;
18166;SDS011;9208;42.688;23.404;2023-06-10T14:29:52;8.43;;;4.20;;
18166;SDS011;9208;42.688;23.404;2023-06-10T14:32:18;5.10;;;3.83;;
18166;SDS011;9208;42.688;23.404;2023-06-10T14:34:43;11.63;;;4.13;;
18166;SDS011;9208;42.688;23.404;2023-06-10T14:37:09;12.07;;;4.20;;
18166;SDS011;9208;42.688;23.404;2023-06-10T14:39:35;16.43;;;5.37;;
18166;SDS011;9208;42.688;23.404;2023-06-10T14:42:01;8.13;;;4.20;;
18166;SDS011;9208;42.688;23.404;2023-06-10T14:44:26;11.70;;;4.77;;
18166;SDS011;9208;42.688;23.404;2023-06-10T14:46:52;9.27;;;4.13;;
18166;SDS011;9208;42.688;23.404;2023-06-10T14:49:17;4.40;;;3.80;;
18166;SDS011;9208;42.688;23.404;2023-06-10T14:51:43;5.70;;;3.40;;
18166;SDS011;9208;42.688;23.404;2023-06-10T14:54:09;15.67;;;5.00;;
18166;SDS011;9208;42.688;23.404;2023-06-10T14:56:35;6.93;;;4.03;;
18166;SDS011;9208;42.688;23.404;2023-06-10T14:59:00;4.87;;;3.87;;
18166;SDS011;9208;42.688;23.404;2023-06-10T15:01:26;5.70;;;3.73;;
18166;SDS011;9208;42.688;23.404;2023-06-10T15:03:55;5.97;;;3.80;;